Terminal Aerodrome Forecast
Issued by NWS North Platte, NE

Home | Current Version | Previous Version | Graphics & Text | Print | Product List | Glossary On
Versions: 1 2 3 4 5 6 7 8 9 10 11 12 13 14 15 16 17 18 19 20 21 22 23 24
000
FTUS43 KLBF 100500 RRA
TAFVTN
TAF
KVTN 100549Z 1006/1106 14006KT P6SM FEW060 SCT200
     FM101400 17013G20KT P6SM SCT150
     FM102300 14013KT P6SM SCT070 BKN150
      TEMPO 1023/1103 5SM TSRA BKN070CB=

USA.gov is the U.S. government's official web portal to all federal, state and local government web resources and services.